Latest Weather Observations for Dum In Mirrie

IDD60801

Issued at 9:35 am CST Tuesday 21 October 2014 (issued every 30 minutes, with the page automatically refreshed every 10 minutes)

About weather observations | Map of weather stations | Latest weather observations for NT | Other Formats
Station Details ID: 014277 Name: DUM IN MIRRIE AIRSTRIP Lat: -12.63 Lon: 130.37 Height: 3.5 m
Data from the previous 72 hours. | See also: Recent months at Dum In Mirrie
Date/Time
CST
Temp
°C
App
Temp
°C
Dew
Point
Rel
Hum
%
Delta-T
°C
Wind Press
QNH
hPa
Press
MSL
hPa
Rain
since 9 am
mm
Dir
 
Spd
km/h
Gust
km/h
Spd
kts
Gust
kts
21/09:30am 30.6 33.6 21.9 59 5.9 E 9 17 5 9 1016.1 1016.1 0.0
21/09:00am 29.9 32.3 21.6 61 5.6 ENE 11 19 6 10 1015.5 1015.5 0.0
21/08:30am 29.7 32.3 21.9 63 5.3 NE 11 17 6 9 1015.1 1015.1 0.0
21/08:00am 29.3 32.6 21.8 64 5.0 NE 7 13 4 7 1014.9 1014.9 0.0
21/07:30am 28.1 31.6 22.1 70 4.0 NE 7 13 4 7 1014.2 1014.2 0.0
21/07:00am 26.0 29.9 21.9 78 2.7 ENE 4 7 2 4 1014.3 1014.3 0.0
21/06:30am 24.3 28.2 21.8 86 1.7 NE 4 7 2 4 1014.0 1014.0 0.0
21/06:00am 24.9 28.9 21.4 81 2.3 NNE 2 4 1 2 1013.6 1013.6 0.0
21/05:30am 26.4 30.5 22.3 78 2.8 ENE 4 6 2 3 1013.6 1013.6 0.0
21/05:00am 26.3 30.0 22.2 78 2.8 NNE 6 9 3 5 1013.3 1013.3 0.0
21/04:30am 26.6 30.3 22.2 77 3.0 NE 6 7 3 4 1013.3 1013.3 0.0
21/04:00am 27.1 30.6 22.1 74 3.4 NE 7 11 4 6 1013.2 1013.2 0.0
21/03:30am 27.2 30.6 21.7 72 3.7 N 6 9 3 5 1012.9 1012.9 0.0
21/03:00am 27.5 30.8 21.8 71 3.8 N 7 15 4 8 1012.6 1012.6 0.0
21/02:30am 27.8 31.3 22.1 71 3.8 N 7 15 4 8 1012.8 1012.8 0.0
21/02:00am 27.8 31.4 22.3 72 3.7 N 7 15 4 8 1013.1 1013.1 0.0
21/01:30am 27.9 31.5 22.4 72 3.7 NNW 7 15 4 8 1013.2 1013.2 0.0
21/01:00am 28.1 31.4 22.6 72 3.7 NNW 9 19 5 10 1013.4 1013.4 0.0
21/12:30am 28.3 31.5 23.0 73 3.6 N 11 19 6 10 1013.6 1013.6 0.0
21/12:00am 28.1 31.1 20.9 65 4.8 NNW 6 11 3 6 1013.7 1013.7 0.0
 
Date/Time
CST
Temp
°C
App
Temp
°C
Dew
Point
Rel
Hum
%
Delta-T
°C
Wind Press
QNH
hPa
Press
MSL
hPa
Rain
since 9 am
mm
Dir
 
Spd
km/h
Gust
km/h
Spd
kts
Gust
kts
20/11:30pm 28.2 31.8 21.2 65 4.7 NNW 4 7 2 4 1013.7 1013.7 0.0
20/11:00pm 27.4 31.4 21.4 70 4.0 NNW 2 9 1 5 1013.6 1013.6 0.0
20/10:30pm 26.9 30.4 20.3 67 4.3 N 2 4 1 2 1013.3 1013.3 0.0
20/10:00pm 28.6 32.8 20.9 63 5.1 CALM 0 0 0 0 1013.0 1013.0 0.0
20/09:30pm 28.8 32.6 21.6 65 4.8 SW 4 7 2 4 1012.7 1012.7 0.0
20/09:00pm 28.7 32.0 20.7 62 5.3 SW 4 6 2 3 1012.5 1012.5 0.0
20/08:30pm 28.4 31.7 19.9 60 5.6 SW 2 4 1 2 1012.2 1012.2 0.0
20/08:00pm 28.6 31.5 19.8 59 5.7 W 4 7 2 4 1011.8 1011.8 0.0
20/07:30pm 27.9 30.6 19.4 60 5.5 W 4 6 2 3 1011.6 1011.6 0.0
20/07:00pm 28.5 31.9 19.4 57 5.9 CALM 0 2 0 1 1011.2 1011.2 0.0
20/06:30pm 29.6 32.4 19.6 55 6.5 N 4 7 2 4 1010.9 1010.9 0.0
20/06:00pm 30.1 32.9 20.9 57 6.1 N 7 13 4 7 1010.5 1010.5 0.0
20/05:30pm 30.1 32.9 21.5 60 5.8 NNW 9 15 5 8 1010.1 1010.1 0.0
20/05:00pm 30.2 33.1 21.8 60 5.7 NNW 9 19 5 10 1010.0 1010.0 0.0
20/04:30pm 31.0 33.8 22.3 60 5.9 NW 11 17 6 9 1009.9 1009.9 0.0
20/04:00pm 31.4 34.6 22.4 59 6.1 WNW 9 17 5 9 1010.0 1010.0 0.0
20/03:30pm 31.2 34.1 22.5 60 5.9 W 11 19 6 10 1010.1 1010.1 0.0
20/03:00pm 31.6 34.6 22.6 59 6.2 WNW 11 19 6 10 1010.4 1010.4 0.0
20/02:30pm 31.5 35.0 22.8 60 6.0 WNW 9 15 5 8 1010.6 1010.6 0.0
20/02:00pm 31.4 34.6 23.0 61 5.8 WNW 11 19 6 10 1010.9 1010.9 0.0
20/01:30pm 31.3 34.2 23.1 61 5.6 NW 13 22 7 12 1011.5 1011.5 0.0
20/01:00pm 31.4 33.9 23.2 61 5.6 NW 15 24 8 13 1012.1 1012.1 0.0
20/12:30pm 31.9 34.2 23.4 60 5.9 N 17 26 9 14 1012.7 1012.7 0.0
20/12:00pm 32.3 35.0 23.5 59 6.1 N 15 24 8 13 1013.3 1013.3 0.0
20/11:30am 31.3 34.4 22.9 61 5.8 NE 11 19 6 10 1014.0 1014.0 0.0
20/11:00am 32.0 33.8 20.3 50 7.8 ENE 11 17 6 9 1014.3 1014.3 0.0
20/10:30am 31.6 34.4 22.3 57 6.3 ENE 11 17 6 9 1014.6 1014.6 0.0
20/10:00am 30.4 34.1 22.6 63 5.3 E 7 13 4 7 1014.9 1014.9 0.0
20/09:30am 29.7 32.9 22.4 65 5.0 NE 9 15 5 8 1014.8 1014.8 0.0
20/09:00am 30.2 33.8 23.1 65 4.9 E 9 15 5 8 1014.7 1014.7 0.0
20/08:30am 29.4 33.3 22.9 68 4.4 NE 7 13 4 7 1014.6 1014.6 0.0
20/08:00am 28.9 33.0 23.3 72 3.8 ENE 7 13 4 7 1014.5 1014.5 0.0
20/07:30am 28.1 32.8 23.9 78 2.9 E 6 7 3 4 1014.1 1014.1 0.0
20/07:00am 26.7 32.2 24.0 85 1.9 E 2 6 1 3 1013.8 1013.8 0.0
20/06:30am 25.6 30.4 22.9 85 1.8 ESE 2 4 1 2 1013.4 1013.4 0.0
20/06:00am 26.2 31.3 23.3 84 2.0 SE 2 4 1 2 1013.1 1013.1 0.0
20/05:30am 26.4 31.1 23.3 83 2.1 E 4 6 2 3 1012.8 1012.8 0.0
20/05:00am 26.2 30.2 22.7 81 2.4 E 6 9 3 5 1012.8 1012.8 0.0
20/04:30am 26.9 31.6 23.4 81 2.4 NE 4 13 2 7 1012.5 1012.5 0.0
20/04:00am 27.1 30.8 23.3 80 2.6 NE 9 15 5 8 1012.3 1012.3 0.0
20/03:30am 27.6 31.5 23.0 76 3.1 NNE 7 13 4 7 1012.0 1012.0 0.0
20/03:00am 27.8 31.9 23.2 76 3.1 N 7 15 4 8 1012.0 1012.0 0.0
20/02:30am 27.8 31.5 23.2 76 3.1 N 9 17 5 9 1012.1 1012.1 0.0
20/02:00am 27.9 31.5 23.1 75 3.3 N 9 17 5 9 1012.5 1012.5 0.0
20/01:30am 27.8 31.2 22.7 74 3.5 N 9 15 5 8 1012.5 1012.5 0.0
20/01:00am 28.0 31.5 22.9 74 3.5 N 9 17 5 9 1012.7 1012.7 0.0
20/12:30am 28.3 32.0 23.2 74 3.5 N 9 15 5 8 1013.1 1013.1 0.0
20/12:00am 28.3 32.5 23.4 75 3.4 NNW 7 15 4 8 1013.3 1013.3 0.0
 
Date/Time
CST
Temp
°C
App
Temp
°C
Dew
Point
Rel
Hum
%
Delta-T
°C
Wind Press
QNH
hPa
Press
MSL
hPa
Rain
since 9 am
mm
Dir
 
Spd
km/h
Gust
km/h
Spd
kts
Gust
kts
19/11:30pm 28.7 32.2 23.6 74 3.5 NW 11 17 6 9 1013.4 1013.4 0.0
19/11:00pm 28.6 32.7 23.9 75 3.2 NW 9 17 5 9 1013.6 1013.6 0.0
19/10:30pm 28.6 32.7 23.9 75 3.2 NW 9 22 5 12 1013.3 1013.3 0.0
19/10:00pm 28.9 33.0 24.0 75 3.4 WNW 9 17 5 9 1012.9 1012.9 0.0
19/09:30pm 29.0 32.7 23.9 74 3.5 WNW 11 20 6 11 1012.6 1012.6 0.0
19/09:00pm 28.9 32.8 23.6 73 3.6 WNW 9 19 5 10 1012.3 1012.3 0.0
19/08:30pm 29.1 32.9 24.0 74 3.5 WNW 11 20 6 11 1011.7 1011.7 0.0
19/08:00pm 29.4 33.8 23.4 70 4.1 WNW 6 15 3 8 1011.3 1011.3 0.0
19/07:30pm 29.3 32.5 21.3 62 5.4 NW 6 9 3 5 1010.8 1010.8 0.0
19/07:00pm 30.1 33.0 20.6 56 6.3 N 6 9 3 5 1010.5 1010.5 0.0
19/06:30pm 30.7 33.4 20.6 54 6.7 N 7 11 4 6 1010.1 1010.1 0.0
19/06:00pm 31.3 33.5 20.3 52 7.3 N 9 15 5 8 1009.8 1009.8 0.0
19/05:30pm 32.0 34.3 20.6 51 7.6 N 9 15 5 8 1009.5 1009.5 0.0
19/05:00pm 31.9 34.5 22.0 55 6.7 N 11 19 6 10 1009.2 1009.2 0.0
19/04:30pm 32.0 35.2 23.0 59 6.2 N 11 20 6 11 1009.2 1009.2 0.0
19/04:00pm 31.9 34.2 23.4 60 5.9 N 17 26 9 14 1009.2 1009.2 0.0
19/03:30pm 32.6 35.7 23.5 58 6.3 N 13 22 7 12 1009.3 1009.3 0.0
19/03:00pm 32.2 34.5 23.4 59 6.1 N 17 24 9 13 1009.5 1009.5 0.0
19/02:30pm 32.7 35.5 23.6 58 6.3 N 15 22 8 12 1009.9 1009.9 0.0
19/02:00pm 32.3 34.3 23.0 58 6.4 N 17 32 9 17 1010.2 1010.2 0.0
19/01:30pm 31.7 33.2 23.0 60 6.0 N 20 30 11 16 1010.7 1010.7 0.0
19/01:00pm 32.4 35.1 23.4 59 6.2 N 15 24 8 13 1011.3 1011.3 0.0
19/12:30pm 32.6 35.2 22.7 56 6.8 N 13 20 7 11 1012.0 1012.0 0.0
19/12:00pm 31.4 34.2 23.0 61 5.8 N 13 24 7 13 1012.5 1012.5 0.0
19/11:30am 32.2 35.5 23.2 59 6.2 N 11 19 6 10 1012.9 1012.9 0.0
19/11:00am 31.4 34.3 21.8 56 6.5 E 9 19 5 10 1013.4 1013.4 0.0
19/10:30am 31.2 34.5 21.9 57 6.3 NE 7 13 4 7 1013.7 1013.7 0.0
19/10:00am 30.9 34.0 22.2 59 5.9 NNE 9 13 5 7 1014.1 1014.1 0.0
19/09:30am 30.8 34.2 22.7 62 5.5 NE 9 17 5 9 1014.3 1014.3 0.0
19/09:00am 29.6 32.8 22.3 65 4.9 E 9 13 5 7 1014.4 1014.4 0.0
19/08:30am 29.3 33.8 23.0 69 4.3 ESE 4 9 2 5 1014.2 1014.2 0.0
19/08:00am 27.9 32.7 23.5 77 3.0 ESE 4 7 2 4 1014.0 1014.0 0.0
19/07:30am 27.1 32.2 24.0 83 2.1 ESE 4 6 2 3 1013.6 1013.6 0.0
19/07:00am 26.1 31.2 24.1 89 1.4 ESE 4 7 2 4 1013.4 1013.4 0.0
19/06:30am 25.7 30.6 23.7 89 1.4 E 4 7 2 4 1012.9 1012.9 0.0
19/06:00am 25.8 30.7 23.7 88 1.4 ESE 4 7 2 4 1012.5 1012.5 0.0
19/05:30am 25.4 30.5 22.7 85 1.8 CALM 0 0 0 0 1012.1 1012.1 0.0
19/05:00am 26.1 31.0 23.6 86 1.7 NE 4 7 2 4 1012.0 1012.0 0.0
19/04:30am 25.3 30.1 22.8 86 1.7 ENE 2 4 1 2 1011.7 1011.7 0.0
19/04:00am 24.5 28.8 22.0 86 1.7 NNE 2 4 1 2 1011.6 1011.6 0.0
19/03:30am 24.9 29.6 22.0 84 1.9 CALM 0 4 0 2 1011.1 1011.1 0.0
19/03:00am 26.2 31.3 22.7 81 2.4 CALM 0 4 0 2 1011.1 1011.1 0.0
19/02:30am 27.1 31.4 22.7 77 3.0 WNW 4 7 2 4 1011.1 1011.1 0.0
19/02:00am 27.5 31.7 23.1 77 3.0 NW 6 11 3 6 1011.3 1011.3 0.0
19/01:30am 27.6 31.2 22.1 72 3.7 NNW 6 11 3 6 1011.5 1011.5 0.0
19/01:00am 27.6 31.3 22.5 74 3.4 NW 7 13 4 7 1011.8 1011.8 0.0
19/12:30am 27.8 31.5 22.5 73 3.6 NNW 7 11 4 6 1012.1 1012.1 0.0
19/12:00am 27.8 31.2 21.6 69 4.1 NW 6 11 3 6 1012.4 1012.4 0.0
 
Date/Time
CST
Temp
°C
App
Temp
°C
Dew
Point
Rel
Hum
%
Delta-T
°C
Wind Press
QNH
hPa
Press
MSL
hPa
Rain
since 9 am
mm
Dir
 
Spd
km/h
Gust
km/h
Spd
kts
Gust
kts
18/11:30pm 27.7 31.3 22.0 71 3.8 NNW 6 13 3 7 1012.5 1012.5 0.0
18/11:00pm 24.8 27.9 20.3 76 2.9 NNW 4 6 2 3 1012.5 1012.5 0.0
18/10:30pm 23.8 27.3 19.5 77 2.8 CALM 0 0 0 0 1012.1 1012.1 0.0
18/10:00pm 23.9 27.2 19.2 75 3.0 CALM 0 0 0 0 1011.9 1011.9 0.0
18/09:30pm 24.3 27.6 19.1 73 3.3 CALM 0 0 0 0 1011.7 1011.7 0.0
18/09:00pm 24.5 27.5 19.3 73 3.3 NW 2 2 1 1 1011.5 1011.5 0.0
18/08:30pm 25.0 28.3 19.1 70 3.8 CALM 0 0 0 0 1011.2 1011.2 0.0
18/08:00pm 25.9 29.4 19.5 68 4.1 CALM 0 0 0 0 1011.0 1011.0 0.0
18/07:30pm 26.7 29.8 19.6 65 4.6 NW 2 4 1 2 1010.7 1010.7 0.0
18/07:00pm 28.4 32.1 19.9 60 5.6 CALM 0 4 0 2 1010.6 1010.6 0.0
18/06:30pm 29.5 32.7 20.4 58 6.0 NW 4 9 2 5 1010.3 1010.3 0.0
18/06:00pm 30.5 33.4 20.7 55 6.5 WNW 6 9 3 5 1010.0 1010.0 0.0
18/05:30pm 31.1 34.1 21.3 56 6.6 W 7 13 4 7 1009.6 1009.6 0.0
18/05:00pm 31.5 34.4 21.1 54 7.0 WNW 7 13 4 7 1009.2 1009.2 0.0
18/04:30pm 31.3 33.9 21.2 55 6.8 WNW 9 15 5 8 1009.2 1009.2 0.0
18/04:00pm 31.5 34.0 21.1 54 7.0 NW 9 15 5 8 1009.3 1009.3 0.0
18/03:30pm 32.3 34.7 21.5 53 7.3 WNW 11 17 6 9 1009.4 1009.4 0.0
18/03:00pm 31.9 33.8 20.5 51 7.6 NW 11 17 6 9 1009.7 1009.7 0.0
18/02:30pm 31.8 33.7 19.8 49 7.9 WNW 9 15 5 8 1010.0 1010.0 0.0
18/02:00pm 32.0 33.4 20.3 50 7.8 NW 13 20 7 11 1010.5 1010.5 0.0
18/01:30pm 32.7 34.9 21.2 50 7.7 NW 11 19 6 10 1011.1 1011.1 0.0
18/01:00pm 31.9 32.5 20.2 50 7.8 N 17 26 9 14 1011.6 1011.6 0.0
18/12:30pm 32.6 33.5 20.8 49 7.9 N 17 26 9 14 1012.1 1012.1 0.0
18/12:00pm 33.2 34.8 20.7 47 8.4 N 13 22 7 12 1012.7 1012.7 0.0
18/11:30am 33.2 33.3 16.5 36 10.6 NNE 11 17 6 9 1013.2 1013.2 0.0
18/11:00am 32.6 33.2 16.8 38 10.0 E 9 17 5 9 1013.7 1013.7 0.0
18/10:30am 32.0 33.3 17.5 42 9.3 ESE 7 17 4 9 1014.0 1014.0 0.0
18/10:00am 31.1 32.9 18.8 48 8.0 E 7 13 4 7 1014.0 1014.0 0.0

Other Formats:

Comma delimited format used in spreadsheet applications
http://www.bom.gov.au/fwo/IDD60801/IDD60801.94116.axf

JavaScript Object Notation format (JSON) in row-major order
http://www.bom.gov.au/fwo/IDD60801/IDD60801.94116.json